Time;durP1;ratioP1;P1;durP2;ratioP2;P2;SDS_P1;SDS_P2;PMS_P1;PMS_P2;Temp;Humidity;BMP_temperature;BMP_pressure;BME280_temperature;BME280_humidity;BME280_pressure;Samples;Min_cycle;Max_cycle;Signal;HPM_P1;HPM_P2
2023/05/26 00:00:21;;;;;;;27.88;3.00;;;7.60;99.90;;;;;;5114022;28;20040;-71
2023/05/26 00:02:46;;;;;;;22.83;3.63;;;7.60;99.90;;;;;;5097066;28;20381;-71
2023/05/26 00:05:20;;;;;;;36.72;4.65;;;7.60;99.90;;;;;;5114907;28;20100;-77
2023/05/26 00:07:47;;;;;;;25.08;3.53;;;7.60;99.90;;;;;;5080915;28;20059;-71
2023/05/26 00:10:13;;;;;;;34.10;4.35;;;7.60;99.90;;;;;;5096632;28;20051;-69
2023/05/26 00:12:39;;;;;;;27.20;3.17;;;7.50;99.90;;;;;;5114634;28;20192;-71
2023/05/26 00:15:06;;;;;;;30.55;4.20;;;7.50;99.90;;;;;;5096590;28;20130;-71
2023/05/26 00:17:31;;;;;;;19.20;3.58;;;7.40;99.90;;;;;;5099274;28;20054;-69
2023/05/26 00:19:59;;;;;;;35.75;4.22;;;7.40;99.90;;;;;;5083376;28;20043;-70
2023/05/26 00:22:26;;;;;;;25.35;3.60;;;7.40;99.90;;;;;;5118481;28;20052;-71
2023/05/26 00:24:52;;;;;;;39.85;4.05;;;7.40;99.90;;;;;;5099356;28;20082;-70
2023/05/26 00:27:18;;;;;;;32.35;4.28;;;7.30;99.90;;;;;;5118297;28;20040;-70
2023/05/26 00:29:44;;;;;;;45.70;4.93;;;7.30;99.90;;;;;;5083898;28;20350;-69
2023/05/26 00:32:11;;;;;;;36.13;4.57;;;7.30;99.90;;;;;;5099867;28;20050;-69
2023/05/26 00:34:36;;;;;;;30.90;3.67;;;7.30;99.90;;;;;;5100053;28;20055;-70
2023/05/26 00:37:02;;;;;;;31.00;5.05;;;7.20;99.90;;;;;;5117779;28;20461;-71
2023/05/26 00:39:30;;;;;;;28.02;4.05;;;7.20;99.90;;;;;;5116590;28;20116;-69
2023/05/26 00:41:56;;;;;;;;;;;7.20;99.90;;;;;;5117691;28;20048;-70
2023/05/26 00:44:22;;;;;;;29.50;4.53;;;7.20;99.90;;;;;;5117922;28;20280;-71
2023/05/26 00:46:48;;;;;;;29.92;3.90;;;7.10;99.90;;;;;;5099267;28;20047;-70
2023/05/26 00:49:14;;;;;;;27.00;3.60;;;7.10;99.90;;;;;;5116954;28;20093;-71
2023/05/26 00:51:40;;;;;;;33.70;4.63;;;7.10;99.90;;;;;;5116946;28;20047;-69
2023/05/26 00:54:06;;;;;;;24.53;3.73;;;7.00;99.90;;;;;;5116799;28;20039;-70
2023/05/26 00:56:35;;;;;;;24.92;4.15;;;7.10;99.90;;;;;;5097824;28;20035;-70
2023/05/26 00:59:02;;;;;;;34.58;3.97;;;7.00;99.90;;;;;;5116181;28;20043;-70
2023/05/26 01:01:29;;;;;;;27.95;3.58;;;7.00;99.90;;;;;;5116305;28;20051;-71
2023/05/26 01:03:55;;;;;;;28.70;4.07;;;6.90;99.90;;;;;;5116325;28;20035;-70
2023/05/26 01:06:22;;;;;;;34.10;4.22;;;7.00;99.90;;;;;;5116359;28;20064;-71
2023/05/26 01:08:48;;;;;;;38.42;3.67;;;7.00;99.90;;;;;;5097858;28;20051;-70
2023/05/26 01:11:37;;;;;;;20.60;3.30;;;6.90;99.90;;;;;;5098054;28;20054;-71
2023/05/26 01:14:14;;;;;;;32.80;4.28;;;6.90;99.90;;;;;;5116753;28;20078;-72
2023/05/26 01:16:51;;;;;;;30.92;5.05;;;6.80;99.90;;;;;;5115718;28;20127;-71
2023/05/26 01:20:03;;;;;;;41.15;3.67;;;6.80;99.90;;;;;;5116325;28;20047;-71
2023/05/26 01:22:50;;;;;;;35.28;4.18;;;6.80;99.90;;;;;;5081665;28;20050;-72
2023/05/26 01:25:46;;;;;;;32.90;4.10;;;6.90;99.90;;;;;;5115445;28;20082;-71
2023/05/26 01:28:21;;;;;;;31.00;3.92;;;6.80;99.90;;;;;;5114974;28;20066;-71
2023/05/26 01:30:48;;;;;;;33.28;3.85;;;6.80;99.90;;;;;;5115477;28;20130;-70
2023/05/26 01:33:14;;;;;;;33.47;5.13;;;6.80;99.90;;;;;;5115385;28;20043;-72
2023/05/26 01:35:40;;;;;;;31.77;4.03;;;6.80;99.90;;;;;;5115069;28;20050;-70
2023/05/26 01:38:07;;;;;;;40.33;5.72;;;6.80;99.90;;;;;;5115343;28;20092;-70
2023/05/26 01:40:34;;;;;;;34.35;4.43;;;6.70;99.90;;;;;;5097221;28;20040;-73
2023/05/26 01:43:08;;;;;;;30.20;3.83;;;6.70;99.90;;;;;;5097838;28;20050;-71
2023/05/26 01:45:40;;;;;;;28.23;3.53;;;6.70;99.90;;;;;;5116041;28;20469;-72
2023/05/26 01:48:09;;;;;;;30.25;3.67;;;6.70;99.90;;;;;;5115737;28;20044;-71
2023/05/26 01:50:42;;;;;;;34.80;4.00;;;6.70;99.90;;;;;;5097434;28;20392;-71
2023/05/26 01:53:12;;;;;;;35.78;4.53;;;6.60;99.90;;;;;;5097564;28;20044;-71
2023/05/26 01:55:40;;;;;;;31.55;4.50;;;6.60;99.90;;;;;;5115640;28;20083;-72
2023/05/26 01:58:06;;;;;;;33.33;4.07;;;6.60;99.90;;;;;;5097563;28;20054;-71
2023/05/26 02:00:32;;;;;;;28.52;3.47;;;6.60;99.90;;;;;;5080972;28;20393;-72
2023/05/26 02:02:58;;;;;;;27.77;4.93;;;6.50;99.90;;;;;;5115558;28;20054;-72
2023/05/26 02:05:23;;;;;;;31.30;4.50;;;6.50;99.90;;;;;;5115516;28;20052;-71
2023/05/26 02:07:51;;;;;;;27.85;3.67;;;6.50;99.90;;;;;;5097729;28;20051;-70
2023/05/26 02:10:17;;;;;;;32.10;4.50;;;6.50;99.90;;;;;;5116413;28;20426;-71
2023/05/26 02:12:42;;;;;;;28.02;4.25;;;6.50;99.90;;;;;;5080617;28;20130;-71
2023/05/26 02:15:08;;;;;;;36.85;4.40;;;6.50;99.90;;;;;;5097227;28;20051;-71
2023/05/26 02:17:34;;;;;;;27.80;3.40;;;6.40;99.90;;;;;;5115194;28;20092;-71
2023/05/26 02:20:02;;;;;;;32.65;4.20;;;6.40;99.90;;;;;;5064185;28;20055;-70
2023/05/26 02:22:28;;;;;;;22.88;3.67;;;6.40;99.90;;;;;;5115612;28;20503;-71
2023/05/26 02:24:53;;;;;;;36.97;7.18;;;6.40;99.90;;;;;;5097489;28;20048;-70
2023/05/26 02:27:19;;;;;;;32.33;6.10;;;6.40;99.90;;;;;;5097470;28;20473;-70
2023/05/26 02:29:45;;;;;;;40.25;4.38;;;6.40;99.90;;;;;;5115099;28;20050;-70
2023/05/26 02:32:11;;;;;;;32.95;4.85;;;6.40;99.90;;;;;;5097666;28;20051;-69
2023/05/26 02:34:36;;;;;;;35.60;4.57;;;6.40;99.90;;;;;;5080432;28;20052;-70
2023/05/26 02:37:02;;;;;;;33.00;4.28;;;6.30;99.90;;;;;;5096567;28;20040;-70
2023/05/26 02:39:28;;;;;;;31.65;4.30;;;6.30;99.90;;;;;;5096188;28;20075;-69
2023/05/26 02:41:53;;;;;;;34.95;4.70;;;6.30;99.90;;;;;;5114604;28;20040;-69
2023/05/26 02:44:19;;;;;;;24.70;3.78;;;6.30;99.90;;;;;;5114189;28;20039;-70
2023/05/26 02:46:45;;;;;;;35.08;4.10;;;6.30;99.90;;;;;;5096871;28;20065;-70
2023/05/26 02:49:10;;;;;;;30.23;4.22;;;6.20;99.90;;;;;;5096825;28;20054;-70
2023/05/26 02:51:36;;;;;;;29.33;4.53;;;6.20;99.90;;;;;;5096882;28;20124;-70
2023/05/26 02:54:02;;;;;;;25.25;4.47;;;6.20;99.90;;;;;;5114806;28;20032;-69
2023/05/26 02:56:28;;;;;;;42.75;4.50;;;6.20;99.90;;;;;;5114548;28;20051;-70
2023/05/26 02:58:54;;;;;;;23.60;3.90;;;6.20;99.90;;;;;;5113962;28;20092;-70
2023/05/26 03:01:21;;;;;;;34.10;4.25;;;6.20;99.90;;;;;;5114880;28;20047;-71
2023/05/26 03:03:47;;;;;;;33.08;4.40;;;6.20;99.90;;;;;;5096070;28;20061;-70
2023/05/26 03:06:13;;;;;;;30.33;3.92;;;6.10;99.90;;;;;;5114374;28;20138;-70
2023/05/26 03:08:38;;;;;;;28.88;4.30;;;6.10;99.90;;;;;;5078832;28;20058;-70
2023/05/26 03:11:05;;;;;;;33.55;5.82;;;6.10;99.90;;;;;;5113791;28;20098;-70
2023/05/26 03:13:30;;;;;;;27.27;4.07;;;6.10;99.90;;;;;;5114354;28;20047;-69
2023/05/26 03:15:56;;;;;;;38.80;4.57;;;6.10;99.90;;;;;;5095932;28;20046;-70
2023/05/26 03:18:22;;;;;;;23.67;4.10;;;6.10;99.90;;;;;;5113553;28;20043;-70
2023/05/26 03:20:48;;;;;;;30.92;4.68;;;6.10;99.90;;;;;;5095182;28;20404;-71
2023/05/26 03:23:17;;;;;;;26.60;3.92;;;6.20;99.90;;;;;;5113724;28;20496;-70
2023/05/26 03:25:42;;;;;;;31.33;4.25;;;6.20;99.90;;;;;;5113418;28;20040;-69
2023/05/26 03:28:08;;;;;;;35.95;4.20;;;6.20;99.90;;;;;;5095308;28;20069;-69
2023/05/26 03:30:34;;;;;;;26.13;4.05;;;6.20;99.90;;;;;;5078818;28;20108;-69
2023/05/26 03:33:01;;;;;;;36.83;5.00;;;6.20;99.90;;;;;;5113468;28;20544;-69
2023/05/26 03:35:26;;;;;;;30.60;4.03;;;6.30;99.90;;;;;;5113394;28;20075;-69
2023/05/26 03:37:52;;;;;;;22.33;4.00;;;6.30;99.90;;;;;;5113412;28;20102;-69
2023/05/26 03:40:18;;;;;;;36.25;4.47;;;6.30;99.90;;;;;;5079403;28;20078;-69
2023/05/26 03:42:43;;;;;;;36.45;5.38;;;6.30;99.90;;;;;;5114128;28;20063;-70
2023/05/26 03:45:10;;;;;;;32.25;4.80;;;6.40;99.90;;;;;;5113226;28;20492;-70
2023/05/26 03:47:36;;;;;;;31.00;3.80;;;6.50;99.90;;;;;;5095119;28;20044;-70
2023/05/26 03:50:02;;;;;;;31.92;4.40;;;6.50;99.90;;;;;;5113976;28;20285;-70
2023/05/26 03:52:27;;;;;;;28.60;4.72;;;6.60;99.90;;;;;;5097721;28;20052;-70
2023/05/26 03:54:53;;;;;;;29.88;4.18;;;6.60;99.90;;;;;;5099664;28;20468;-70
2023/05/26 03:57:19;;;;;;;31.20;5.47;;;6.70;99.90;;;;;;5099236;28;20050;-70
2023/05/26 03:59:44;;;;;;;35.80;4.80;;;6.70;99.90;;;;;;5081971;28;20452;-69
2023/05/26 04:02:10;;;;;;;32.45;4.35;;;6.80;99.90;;;;;;5117125;28;20047;-69
2023/05/26 04:04:36;;;;;;;38.25;4.78;;;6.80;99.90;;;;;;5098542;28;20047;-70
2023/05/26 04:07:03;;;;;;;32.53;5.78;;;6.80;99.90;;;;;;5098688;28;20055;-70
2023/05/26 04:09:29;;;;;;;;;;;6.90;99.90;;;;;;5082132;28;20047;-70
2023/05/26 04:11:54;;;;;;;26.90;4.65;;;6.90;99.90;;;;;;5116903;28;19920;-71
2023/05/26 04:14:20;;;;;;;25.98;5.05;;;6.90;99.90;;;;;;5117180;28;20054;-70
2023/05/26 04:16:46;;;;;;;35.47;4.20;;;6.90;99.90;;;;;;5116525;28;20123;-71
2023/05/26 04:19:12;;;;;;;36.35;5.82;;;6.90;99.90;;;;;;5098883;28;20062;-70
2023/05/26 04:21:37;;;;;;;36.13;5.78;;;6.90;99.90;;;;;;5098540;28;20048;-70
2023/05/26 04:24:03;;;;;;;28.10;4.43;;;6.90;99.90;;;;;;5116720;28;20055;-69
2023/05/26 04:26:32;;;;;;;40.20;6.22;;;6.90;99.90;;;;;;5116573;28;20089;-70
2023/05/26 04:28:59;;;;;;;35.53;5.00;;;7.00;99.90;;;;;;5116487;28;20146;-70
2023/05/26 04:31:28;;;;;;;34.63;4.45;;;7.00;99.90;;;;;;5116594;28;20062;-70
2023/05/26 04:33:58;;;;;;;32.35;4.50;;;6.90;99.90;;;;;;5116660;28;20431;-71
2023/05/26 04:36:24;;;;;;;29.05;4.45;;;7.00;99.90;;;;;;5099009;28;20443;-71
2023/05/26 04:38:51;;;;;;;38.10;5.17;;;7.00;99.90;;;;;;5098375;28;20117;-73
2023/05/26 04:41:18;;;;;;;49.22;4.75;;;7.00;99.90;;;;;;5116454;28;20047;-70
2023/05/26 04:43:45;;;;;;;27.88;4.65;;;7.00;99.90;;;;;;5116963;28;20046;-71
2023/05/26 04:46:11;;;;;;;35.42;5.28;;;7.10;99.90;;;;;;5081157;28;20131;-69
2023/05/26 04:48:37;;;;;;;34.10;4.53;;;7.10;99.90;;;;;;5081303;28;20055;-69
2023/05/26 04:51:07;;;;;;;41.15;5.47;;;7.10;99.90;;;;;;5081363;28;20059;-70
2023/05/26 04:53:33;;;;;;;34.72;5.38;;;7.10;99.90;;;;;;5116260;28;20076;-70
2023/05/26 04:56:00;;;;;;;29.30;4.03;;;7.20;99.90;;;;;;5080871;28;20063;-70
2023/05/26 04:58:26;;;;;;;32.08;4.55;;;7.20;99.90;;;;;;5098108;28;20071;-70
2023/05/26 05:00:53;;;;;;;40.80;5.65;;;7.30;99.90;;;;;;5116554;28;20075;-76
2023/05/26 05:03:20;;;;;;;31.52;4.85;;;7.40;99.90;;;;;;5080702;28;20424;-70
2023/05/26 05:05:47;;;;;;;33.70;4.38;;;7.40;99.90;;;;;;5097644;28;20216;-70
2023/05/26 05:08:12;;;;;;;32.58;5.28;;;7.50;99.90;;;;;;5116116;28;20083;-70
2023/05/26 05:10:38;;;;;;;39.92;4.32;;;7.60;99.90;;;;;;5098135;28;20121;-69
2023/05/26 05:13:04;;;;;;;30.38;4.78;;;7.60;99.90;;;;;;5080693;28;20079;-69
2023/05/26 05:15:29;;;;;;;39.13;6.57;;;7.70;99.90;;;;;;5081003;28;20044;-70
2023/05/26 05:17:56;;;;;;;27.17;4.30;;;7.80;99.90;;;;;;5097819;28;20139;-78
2023/05/26 05:20:21;;;;;;;24.25;5.25;;;7.80;99.90;;;;;;5097670;28;20087;-68
2023/05/26 05:22:47;;;;;;;37.95;5.45;;;7.90;99.90;;;;;;5097586;28;20124;-68
2023/05/26 05:25:13;;;;;;;38.55;5.20;;;8.00;99.90;;;;;;5080716;28;20135;-69
2023/05/26 05:27:38;;;;;;;26.15;3.67;;;8.10;99.90;;;;;;5116311;28;20112;-69
2023/05/26 05:30:05;;;;;;;43.63;5.45;;;8.10;99.90;;;;;;5097001;28;20481;-69
2023/05/26 05:32:31;;;;;;;41.17;4.22;;;8.20;99.90;;;;;;5097980;28;20051;-68
2023/05/26 05:34:57;;;;;;;38.90;4.75;;;8.20;99.90;;;;;;5115333;28;20050;-75
2023/05/26 05:37:23;;;;;;;25.60;3.45;;;8.30;99.90;;;;;;5115293;28;20134;-69
2023/05/26 05:39:48;;;;;;;29.23;4.35;;;8.30;99.90;;;;;;5097521;28;20138;-69
2023/05/26 05:42:14;;;;;;;26.15;3.40;;;8.40;99.90;;;;;;5097560;28;20043;-69
2023/05/26 05:44:40;;;;;;;31.45;4.68;;;8.50;99.90;;;;;;5114921;28;20071;-69
2023/05/26 05:47:05;;;;;;;28.73;4.18;;;8.50;99.90;;;;;;5114909;28;20126;-70
2023/05/26 05:49:31;;;;;;;40.30;5.40;;;8.60;99.90;;;;;;5096695;28;20100;-70
2023/05/26 05:51:57;;;;;;;41.10;4.93;;;8.70;99.90;;;;;;5115248;28;20069;-69
2023/05/26 05:54:22;;;;;;;30.02;4.05;;;8.70;99.90;;;;;;5114753;28;20130;-68
2023/05/26 05:56:48;;;;;;;35.03;3.70;;;8.80;99.90;;;;;;5114769;28;20051;-69
2023/05/26 05:59:14;;;;;;;27.15;4.10;;;8.90;99.90;;;;;;5096880;28;20103;-68
2023/05/26 06:01:39;;;;;;;32.10;4.63;;;8.90;99.90;;;;;;5114582;28;20098;-69
2023/05/26 06:04:05;;;;;;;44.78;5.32;;;9.10;99.90;;;;;;5114466;28;20140;-69
2023/05/26 06:06:31;;;;;;;37.95;5.20;;;9.10;99.90;;;;;;5115451;28;20073;-70
2023/05/26 06:08:57;;;;;;;34.97;4.50;;;9.10;99.90;;;;;;5096424;28;20051;-71
2023/05/26 06:11:23;;;;;;;34.40;4.60;;;9.20;99.90;;;;;;5115153;28;20074;-70
2023/05/26 06:13:48;;;;;;;31.45;4.07;;;9.30;99.90;;;;;;5114944;28;20431;-68
2023/05/26 06:16:14;;;;;;;22.77;3.60;;;9.40;99.90;;;;;;5096794;28;20474;-69
2023/05/26 06:18:40;;;;;;;31.02;4.38;;;9.40;99.90;;;;;;5114413;28;20048;-68
2023/05/26 06:21:06;;;;;;;38.25;4.50;;;;;;;;;;5096035;28;20047;-70
2023/05/26 06:23:32;;;;;;;32.00;4.20;;;;;;;;;;5114823;28;20438;-68
2023/05/26 06:26:03;;;;;;;34.30;5.18;;;;;;;;;;5096099;28;20104;-70
2023/05/26 06:28:29;;;;;;;29.27;4.30;;;9.80;99.90;;;;;;5114641;28;20051;-70
2023/05/26 06:30:55;;;;;;;34.55;5.20;;;10.00;99.90;;;;;;5114422;28;20549;-71
2023/05/26 06:33:21;;;;;;;32.63;3.55;;;10.00;99.90;;;;;;5079032;28;20083;-70
2023/05/26 06:35:47;;;;;;;39.67;4.72;;;10.00;99.90;;;;;;5114869;28;20050;-70
2023/05/26 06:38:12;;;;;;;32.08;4.15;;;10.10;99.90;;;;;;5096049;28;20090;-69
2023/05/26 06:40:38;;;;;;;38.38;5.38;;;10.10;99.90;;;;;;5114115;28;20442;-68
2023/05/26 06:43:04;;;;;;;40.75;4.32;;;10.20;99.90;;;;;;5114096;28;20059;-70
2023/05/26 06:45:29;;;;;;;31.85;4.20;;;10.30;99.90;;;;;;5095780;28;20048;-68
2023/05/26 06:47:55;;;;;;;30.05;3.85;;;10.30;99.90;;;;;;5112872;28;20426;-70
2023/05/26 06:50:21;;;;;;;33.15;4.80;;;10.50;99.90;;;;;;5095770;28;20047;-70
2023/05/26 06:52:47;;;;;;;32.78;4.22;;;10.60;99.90;;;;;;5096098;28;20525;-70
2023/05/26 06:55:12;;;;;;;29.67;4.80;;;10.70;99.90;;;;;;5095782;28;20067;-71
2023/05/26 06:57:38;;;;;;;20.58;2.92;;;10.80;99.90;;;;;;5095381;28;20050;-72
2023/05/26 07:00:05;;;;;;;27.63;3.42;;;10.90;99.90;;;;;;5078772;28;20048;-70
2023/05/26 07:02:31;;;;;;;35.00;4.15;;;11.00;99.90;;;;;;5113828;28;20043;-69
2023/05/26 07:04:57;;;;;;;27.77;3.47;;;11.10;99.90;;;;;;5113818;28;20144;-69
2023/05/26 07:07:23;;;;;;;30.60;4.30;;;11.20;99.90;;;;;;5096284;28;20104;-73
2023/05/26 07:09:49;;;;;;;28.55;4.15;;;11.30;99.90;;;;;;5095508;28;20378;-70
2023/05/26 07:12:15;;;;;;;30.58;3.95;;;11.30;99.90;;;;;;5095643;28;20389;-70
2023/05/26 07:14:40;;;;;;;27.00;3.70;;;11.30;99.90;;;;;;5095886;28;20389;-70
2023/05/26 07:17:06;;;;;;;23.25;3.28;;;11.50;99.90;;;;;;5095725;28;20089;-69
2023/05/26 07:19:32;;;;;;;20.52;3.30;;;11.60;99.90;;;;;;5095848;28;20462;-73
2023/05/26 07:21:59;;;;;;;30.00;3.55;;;11.70;99.90;;;;;;5113481;28;20546;-70
2023/05/26 07:24:24;;;;;;;23.08;3.10;;;11.70;99.90;;;;;;5095096;28;20044;-71
2023/05/26 07:26:50;;;;;;;22.10;3.53;;;11.50;99.90;;;;;;5097232;28;20039;-69
2023/05/26 07:29:16;;;;;;;31.48;3.67;;;11.70;99.90;;;;;;5083355;28;20051;-69
2023/05/26 07:31:42;;;;;;;30.45;5.07;;;11.70;99.90;;;;;;5100500;28;20441;-68
2023/05/26 07:34:07;;;;;;;28.83;4.50;;;11.60;99.90;;;;;;5099507;28;20073;-69
2023/05/26 07:36:34;;;;;;;21.30;2.95;;;11.70;99.90;;;;;;5082663;28;20051;-71
2023/05/26 07:39:00;;;;;;;28.20;3.47;;;11.80;99.90;;;;;;5117638;28;20118;-68
2023/05/26 07:41:26;;;;;;;25.45;2.90;;;11.90;99.90;;;;;;5099232;28;20130;-71
2023/05/26 07:43:51;;;;;;;20.50;3.85;;;12.10;99.90;;;;;;5065965;28;20039;-71
2023/05/26 07:46:17;;;;;;;21.50;3.28;;;12.20;99.90;;;;;;5099094;28;20457;-71
2023/05/26 07:48:43;;;;;;;26.83;3.72;;;12.30;99.90;;;;;;5082495;28;20051;-70
2023/05/26 07:51:09;;;;;;;27.25;3.10;;;12.30;99.90;;;;;;5099702;28;20127;-69
2023/05/26 07:53:35;;;;;;;22.17;3.28;;;12.40;99.90;;;;;;5082337;28;20040;-70
2023/05/26 07:56:01;;;;;;;22.77;3.80;;;12.40;99.90;;;;;;5099480;28;20393;-70
2023/05/26 07:58:27;;;;;;;22.40;3.55;;;12.40;99.90;;;;;;5117659;28;20047;-71
2023/05/26 08:00:52;;;;;;;27.17;3.35;;;12.40;99.90;;;;;;5065607;28;20044;-72
2023/05/26 08:03:18;;;;;;;25.95;4.93;;;12.50;99.90;;;;;;5117474;28;20066;-72
2023/05/26 08:05:44;;;;;;;24.58;3.22;;;12.60;99.90;;;;;;5117143;28;20047;-70
2023/05/26 08:08:10;;;;;;;17.60;2.67;;;12.60;99.90;;;;;;5081740;28;20052;-70
2023/05/26 08:10:36;;;;;;;21.02;3.90;;;12.70;99.90;;;;;;5082049;28;20058;-69
2023/05/26 08:13:02;;;;;;;31.85;4.80;;;12.80;99.90;;;;;;5098924;28;20051;-69
2023/05/26 08:15:27;;;;;;;22.33;3.67;;;12.80;99.90;;;;;;5098944;28;20088;-72
2023/05/26 08:17:53;;;;;;;26.60;3.53;;;12.70;99.90;;;;;;5098834;28;20048;-71
2023/05/26 08:20:20;;;;;;;23.13;3.58;;;12.90;99.90;;;;;;5098875;28;20051;-79
2023/05/26 08:22:46;;;;;;;;;;;13.00;99.90;;;;;;5099118;28;20055;-70
2023/05/26 08:25:12;;;;;;;29.53;4.60;;;13.00;99.90;;;;;;5099320;28;19984;-70
2023/05/26 08:27:39;;;;;;;20.67;3.40;;;13.10;99.90;;;;;;5116686;28;20048;-71
2023/05/26 08:30:06;;;;;;;21.55;3.90;;;13.20;99.90;;;;;;5116718;28;20127;-70
2023/05/26 08:32:31;;;;;;;22.05;3.05;;;13.30;99.90;;;;;;5098591;28;20051;-71
2023/05/26 08:34:57;;;;;;;19.67;3.05;;;13.30;99.90;;;;;;5098536;28;20054;-71
2023/05/26 08:37:23;;;;;;;20.60;3.47;;;13.40;99.90;;;;;;5116114;28;20086;-70
2023/05/26 08:39:48;;;;;;;19.83;3.55;;;13.40;99.90;;;;;;5098465;28;20047;-70
2023/05/26 08:42:18;;;;;;;23.95;3.95;;;13.40;99.90;;;;;;5064837;28;20492;-71
2023/05/26 08:44:45;;;;;;;21.52;2.80;;;13.50;99.90;;;;;;5098093;28;20047;-70
2023/05/26 08:47:13;;;;;;;22.97;2.60;;;13.30;99.90;;;;;;5116352;28;20040;-71
2023/05/26 08:49:57;;;;;;;23.23;3.08;;;13.50;99.90;;;;;;5098391;28;20043;-69
2023/05/26 08:52:23;;;;;;;24.23;3.05;;;13.60;99.90;;;;;;5116889;28;20043;-72
2023/05/26 08:54:50;;;;;;;16.17;2.67;;;13.70;99.90;;;;;;5098200;28;20377;-73
2023/05/26 08:57:19;;;;;;;16.13;2.50;;;13.70;99.90;;;;;;5098275;28;20043;-72
2023/05/26 08:59:47;;;;;;;19.60;2.65;;;13.80;99.90;;;;;;5115960;28;20091;-71
2023/05/26 09:02:13;;;;;;;13.65;3.33;;;13.80;99.90;;;;;;5116461;28;20407;-71
2023/05/26 09:04:39;;;;;;;14.50;2.25;;;13.90;99.90;;;;;;5080601;28;20062;-69
2023/05/26 09:07:08;;;;;;;20.60;2.45;;;13.90;99.90;;;;;;5115942;28;20044;-70
2023/05/26 09:09:34;;;;;;;15.52;2.40;;;13.90;99.90;;;;;;5098286;28;20048;-72
2023/05/26 09:12:01;;;;;;;18.60;2.55;;;14.10;99.90;;;;;;5097948;28;20382;-69
2023/05/26 09:14:27;;;;;;;19.77;3.60;;;13.90;99.90;;;;;;5097753;28;20137;-77
2023/05/26 09:16:58;;;;;;;13.25;2.92;;;13.80;99.90;;;;;;5115775;28;20043;-70
2023/05/26 09:19:26;;;;;;;14.63;2.75;;;13.80;99.90;;;;;;5097940;28;20338;-69
2023/05/26 09:21:53;;;;;;;21.27;3.55;;;14.00;99.90;;;;;;5115591;28;20043;-68
2023/05/26 09:24:22;;;;;;;14.68;2.72;;;14.10;99.90;;;;;;5116146;28;20401;-68
2023/05/26 09:26:50;;;;;;;27.58;3.00;;;14.10;99.90;;;;;;5097113;28;20050;-70
2023/05/26 09:29:15;;;;;;;;;;;14.10;99.90;;;;;;5116167;28;20443;-69
2023/05/26 09:31:42;;;;;;;17.43;2.07;;;14.20;99.90;;;;;;5114523;28;19920;-69
2023/05/26 09:34:08;;;;;;;21.05;2.65;;;14.30;99.90;;;;;;5097292;28;20516;-69
2023/05/26 09:36:36;;;;;;;25.95;3.17;;;14.50;99.90;;;;;;5097191;28;20431;-69
2023/05/26 09:39:03;;;;;;;22.95;3.05;;;14.50;99.90;;;;;;5116304;28;20112;-70
2023/05/26 09:41:37;;;;;;;22.60;2.40;;;14.60;99.90;;;;;;5097127;28;20051;-70
2023/05/26 09:44:08;;;;;;;14.90;1.90;;;14.70;99.90;;;;;;5097126;28;20083;-71
2023/05/26 09:46:35;;;;;;;20.88;3.53;;;14.80;99.90;;;;;;5096791;28;20149;-69
2023/05/26 09:49:07;;;;;;;17.17;1.95;;;14.70;99.90;;;;;;5114802;28;20051;-68
2023/05/26 09:51:33;;;;;;;18.05;3.15;;;14.60;99.90;;;;;;5115494;28;20044;-71
2023/05/26 09:53:59;;;;;;;19.30;3.03;;;14.80;99.90;;;;;;5080519;28;20051;-71
2023/05/26 09:56:29;;;;;;;17.05;2.20;;;14.80;99.90;;;;;;5097358;28;20381;-70
2023/05/26 09:58:57;;;;;;;20.88;2.85;;;14.90;99.90;;;;;;5114724;28;20130;-68
2023/05/26 10:01:24;;;;;;;18.38;2.35;;;14.90;99.90;;;;;;5114790;28;20083;-71
2023/05/26 10:03:51;;;;;;;17.27;2.92;;;15.00;99.90;;;;;;5096736;28;20046;-69
2023/05/26 10:06:20;;;;;;;13.60;2.20;;;14.80;99.50;;;;;;5114932;28;20193;-69
2023/05/26 10:08:50;;;;;;;17.98;2.88;;;14.90;99.90;;;;;;5079758;28;20130;-67
2023/05/26 10:11:17;;;;;;;14.10;2.10;;;14.90;99.00;;;;;;5114888;28;20389;-68
2023/05/26 10:13:44;;;;;;;14.73;1.92;;;14.90;99.40;;;;;;5114522;28;20385;-70
2023/05/26 10:16:10;;;;;;;15.18;2.75;;;15.10;99.20;;;;;;5114568;28;20080;-69
2023/05/26 10:18:36;;;;;;;14.60;2.03;;;15.00;98.10;;;;;;5096463;28;20040;-72
2023/05/26 10:21:07;;;;;;;16.95;2.97;;;14.90;98.60;;;;;;5114544;28;20049;-68
2023/05/26 10:23:50;;;;;;;19.67;2.85;;;14.80;97.60;;;;;;5114511;28;20046;-70
2023/05/26 10:26:57;;;;;;;14.65;2.47;;;15.10;98.90;;;;;;5096047;28;20044;-70
2023/05/26 10:29:34;;;;;;;14.30;1.73;;;15.30;99.00;;;;;;5096079;28;20039;-71
2023/05/26 10:32:00;;;;;;;14.88;2.08;;;15.40;98.90;;;;;;5114364;28;20047;-70
2023/05/26 10:34:37;;;;;;;19.70;2.40;;;15.30;98.10;;;;;;5096378;28;20134;-69
2023/05/26 10:37:13;;;;;;;15.23;2.72;;;15.50;98.40;;;;;;5095993;28;20043;-69
2023/05/26 10:39:40;;;;;;;12.15;2.17;;;15.30;96.20;;;;;;5113869;28;20051;-79
2023/05/26 10:42:19;;;;;;;14.48;2.10;;;15.30;96.60;;;;;;5114134;28;20051;-71
2023/05/26 10:44:48;;;;;;;14.57;1.80;;;15.40;97.30;;;;;;5113977;28;20082;-71
2023/05/26 10:47:16;;;;;;;14.50;1.60;;;15.50;97.30;;;;;;5114083;28;20058;-69
2023/05/26 10:49:58;;;;;;;18.50;2.30;;;15.60;96.80;;;;;;5096803;28;20083;-70
2023/05/26 10:52:25;;;;;;;17.42;2.60;;;15.60;96.10;;;;;;5078851;28;20051;-69
2023/05/26 10:54:51;;;;;;;12.68;1.52;;;15.70;96.20;;;;;;5113889;28;20044;-69
2023/05/26 10:57:32;;;;;;;16.83;2.28;;;15.80;96.50;;;;;;5095925;28;20393;-70
2023/05/26 10:59:58;;;;;;;15.65;1.85;;;16.00;96.90;;;;;;5078607;28;20204;-69
2023/05/26 11:02:24;;;;;;;16.77;2.45;;;15.90;95.70;;;;;;5095910;28;20439;-71
2023/05/26 11:04:51;;;;;;;;;;;15.90;94.90;;;;;;5095801;28;20101;-69
2023/05/26 11:07:23;;;;;;;11.10;1.30;;;15.80;94.40;;;;;;5113547;28;19923;-69
2023/05/26 11:10:06;;;;;;;11.57;2.05;;;16.00;95.80;;;;;;5113747;28;20132;-69
2023/05/26 11:12:35;;;;;;;13.02;1.60;;;16.10;95.60;;;;;;5113733;28;20115;-70
2023/05/26 11:15:33;;;;;;;8.73;1.75;;;16.20;95.80;;;;;;5113852;28;20035;-69
2023/05/26 11:18:03;;;;;;;14.00;2.03;;;16.30;95.80;;;;;;5078981;28;20089;-70
2023/05/26 11:20:29;;;;;;;14.05;2.00;;;16.40;95.30;;;;;;5095463;28;20059;-70
2023/05/26 11:22:56;;;;;;;15.32;1.60;;;16.40;94.80;;;;;;5113527;28;20048;-69
2023/05/26 11:25:22;;;;;;;11.20;1.70;;;16.10;94.40;;;;;;5113560;28;20393;-69
2023/05/26 11:27:49;;;;;;;13.50;1.70;;;16.20;94.90;;;;;;5113511;28;20050;-69
2023/05/26 11:30:15;;;;;;;12.25;1.50;;;16.20;94.80;;;;;;5113164;28;20508;-68
2023/05/26 11:32:59;;;;;;;17.52;1.98;;;16.40;94.80;;;;;;5078881;28;20083;-69
2023/05/26 11:35:27;;;;;;;17.27;3.00;;;16.20;94.10;;;;;;5095927;28;20195;-70
2023/05/26 11:37:55;;;;;;;21.58;3.13;;;16.10;94.30;;;;;;5095985;28;20165;-72
2023/05/26 11:40:21;;;;;;;10.30;2.05;;;16.40;95.30;;;;;;5078567;28;20059;-69
2023/05/26 11:42:52;;;;;;;13.35;2.38;;;16.30;94.50;;;;;;5096143;28;20039;-80
2023/05/26 11:45:18;;;;;;;9.52;1.55;;;16.50;94.90;;;;;;5095916;28;20126;-69
2023/05/26 11:47:44;;;;;;;12.52;2.47;;;16.60;95.50;;;;;;5113224;28;20083;-69
2023/05/26 11:50:11;;;;;;;15.10;2.10;;;16.40;94.20;;;;;;5096055;28;20090;-70
2023/05/26 11:52:46;;;;;;;14.73;2.10;;;16.40;95.10;;;;;;5095098;28;20485;-69
2023/05/26 11:55:13;;;;;;;16.58;1.90;;;16.50;94.70;;;;;;5095120;28;20052;-68
2023/05/26 11:57:40;;;;;;;16.38;2.30;;;16.50;94.50;;;;;;5113176;28;20048;-72
2023/05/26 12:00:13;;;;;;;17.45;2.35;;;16.60;95.30;;;;;;5094999;28;20084;-69
2023/05/26 12:02:39;;;;;;;13.20;2.63;;;16.40;94.40;;;;;;5079213;28;20382;-68
2023/05/26 12:05:26;;;;;;;11.40;1.80;;;16.30;93.50;;;;;;5112816;28;20062;-70
2023/05/26 12:08:06;;;;;;;16.60;2.60;;;16.30;94.10;;;;;;5113733;28;20055;-69
2023/05/26 12:10:32;;;;;;;12.93;1.98;;;16.50;94.30;;;;;;5095146;28;20074;-69
2023/05/26 12:12:58;;;;;;;14.45;2.13;;;16.60;94.50;;;;;;5096074;28;20051;-70
2023/05/26 12:15:25;;;;;;;13.43;2.37;;;16.60;94.80;;;;;;5099424;28;20043;-69
2023/05/26 12:17:51;;;;;;;12.25;2.35;;;16.70;94.50;;;;;;5098848;28;20051;-70
2023/05/26 12:20:18;;;;;;;11.20;2.10;;;16.70;94.60;;;;;;5117041;28;20539;-70
2023/05/26 12:22:44;;;;;;;15.95;2.90;;;16.90;94.10;;;;;;5116828;28;20051;-69
2023/05/26 12:25:10;;;;;;;15.98;2.35;;;16.80;93.80;;;;;;5081773;28;20112;-69
2023/05/26 12:27:39;;;;;;;11.37;2.13;;;16.60;94.10;;;;;;5117549;28;20039;-71
2023/05/26 12:30:26;;;;;;;11.93;1.88;;;16.60;94.40;;;;;;5117114;28;20425;-70
2023/05/26 12:32:52;;;;;;;13.68;2.60;;;16.70;93.50;;;;;;5099330;28;20040;-69
2023/05/26 12:35:18;;;;;;;9.68;1.92;;;16.40;93.30;;;;;;5116893;28;20158;-74
2023/05/26 12:37:44;;;;;;;11.52;1.63;;;16.60;93.90;;;;;;5116525;28;20449;-68
2023/05/26 12:40:11;;;;;;;14.38;2.25;;;16.60;93.40;;;;;;5099207;28;20040;-70
2023/05/26 12:42:37;;;;;;;14.35;1.90;;;16.50;92.60;;;;;;5098328;28;20047;-68
2023/05/26 12:45:04;;;;;;;13.07;1.83;;;16.60;93.60;;;;;;5082261;28;20393;-67
2023/05/26 12:47:30;;;;;;;;;;;16.60;93.70;;;;;;5116753;28;20039;-69